Πλησιέστερες Αναφορές METAR

 

LGTS - Thessaloniki/Makedonia-Elev 7m
Distance from station: Ν 13km
Ενημερώθηκε: 20/09/2020 14:20
Few Clouds
Few Clouds
 Ανεμος από ΔΒΔ
Ανεμος: ΔΒΔ 13 km/h
Θερμοκρασία: 25°C
Σημείο Δρόσου: 14°C
Υγρασία: 51%
Βαρόμετρο: 1017 hPa
Clouds: Few Clouds
Visibility: 10 km
Cloud details: Few Clouds 762 m
2020/09/20 11:20 LGTS 201120Z 29007KT 9999 FEW025 25/14 Q1017 NOSIG
LGAV - Athens/Elef. Venizelos-Elev 94m
Distance from station: ΝΝΑ 312km
Ενημερώθηκε: 20/09/2020 14:20
Few Clouds
Few Clouds
 Ανεμος από ΒΒΑ
Ανεμος: ΒΒΑ 39 km/h
Θερμοκρασία: 24°C
Σημείο Δρόσου: 10°C
Υγρασία: 41%
Βαρόμετρο: 1015 hPa
Clouds: Few Clouds
Visibility: 10 km
Cloud details: Few Clouds 762 m
2020/09/20 11:20 LGAV 201120Z 02021KT 9999 FEW025 24/10 Q1015 NOSIG
 
LGAL - Alexandroupolis-Elev 3m
Distance from station: Α 251km
Ενημερώθηκε: 20/09/2020 14:20
Μερικώς νεφελώδης
Μερικώς νεφελώδης
 Ανεμος από ΒΒΑ
Ανεμος: ΒΒΑ 22 km/h, Ριπή: 41 km/h
Θερμοκρασία: 25°C
Σημείο Δρόσου: 11°C
Υγρασία: 42%
Βαρόμετρο: 1016 hPa
Clouds: Μερικώς νεφελώδης
Visibility: 10 km
Cloud details: Μερικώς νεφελώδης 1219 m
2020/09/20 11:20 LGAL 201120Z 03012G22KT 9999 SCT040 25/11 Q1016
LGKV - Kavala/Crysoupolis-Elev 5m
Distance from station: ΑΒΑ 144km
Ενημερώθηκε: 20/09/2020 14:20
Few Clouds
Few Clouds
 Ανεμος από Α
Ανεμος: Α 22 km/h
Θερμοκρασία: 24°C
Σημείο Δρόσου: 4°C
Υγρασία: 27%
Βαρόμετρο: 1016 hPa
Clouds: Few Clouds
Visibility: 10 km
Cloud details: Few Clouds 762 m
2020/09/20 11:20 LGKV 201120Z 09012KT 9999 FEW025 24/04 Q1016
 
LGSK - Skiathos Island-Elev 15m
Distance from station: ΝΝΑ 168km
Ενημερώθηκε: 20/09/2020 13:50
Few Clouds
Few Clouds
 Ανεμος από ΒΒΑ
Ανεμος: ΒΒΑ 15 km/h
Θερμοκρασία: 23°C
Σημείο Δρόσου: 14°C
Υγρασία: 57%
Βαρόμετρο: 1017 hPa
Clouds: Few Clouds
Visibility: 10 km
Cloud details: Few Clouds 762 m
2020/09/20 10:50 LGSK 201050Z 02008KT 9999 FEW025 23/14 Q1017
LGLM - Limnos Island-Elev 5m
Distance from station: ΑΝΑ 210km
Ενημερώθηκε: 20/09/2020 14:20
Few Clouds
Few Clouds
 Ανεμος από ΒΑ
Ανεμος: ΒΑ 33 km/h, Ριπή: 52 km/h
Θερμοκρασία: 23°C
Σημείο Δρόσου: 12°C
Υγρασία: 50%
Βαρόμετρο: 1015 hPa
Clouds: Few Clouds
Visibility: 10 km
Cloud details: Few Clouds 610 m
2020/09/20 11:20 LGLM 201120Z 05018G28KT 9999 FEW020 23/12 Q1015
 
LGMT - Mitilini Island-Elev 17m
Distance from station: ΑΝΑ 358km
Ενημερώθηκε: 20/09/2020 14:20
Αίθριος
Αίθριος
 Ανεμος από Β
Ανεμος: Β 15 km/h
Θερμοκρασία: 25°C
Σημείο Δρόσου: 17°C
Υγρασία: 61%
Βαρόμετρο: 1013 hPa
Συνθήκες: Αίθριος
Visibility: greater than 10 km
2020/09/20 11:20 LGMT 201120Z 35008KT CAVOK 25/17 Q1013
LGSY - Skiros Island-Elev 15m
Distance from station: ΝΑ 227km
Ενημερώθηκε: 20/09/2020 13:50
Few Clouds
Few Clouds
 Ανεμος από Β
Ανεμος: Β 33 km/h
Θερμοκρασία: 22°C
Σημείο Δρόσου: 13°C
Υγρασία: 57%
Βαρόμετρο: 1016 hPa
Clouds: Few Clouds
Visibility: 10 km
Cloud details: Few Clouds 610 m
2020/09/20 10:50 LGSY 201050Z 36018KT 9999 FEW020 22/13 Q1016 BLU
 
LGKZ - Kozani-Elev 628m
Distance from station: ΔΝΔ 102km
Ενημερώθηκε: 20/09/2020 12:50
Μη Ενημερωμένο!
Few Clouds
Few Clouds
 Ανεμος από ΑΝΑ
Ανεμος: ΑΝΑ 7 km/h
Θερμοκρασία: 23°C
Σημείο Δρόσου: 11°C
Υγρασία: 47%
Βαρόμετρο: 1019 hPa
Clouds: Few Clouds
Visibility: 10 km
Cloud details: Few Clouds 610 m
2020/09/20 09:50 LGKZ 200950Z 11004KT 9999 FEW020 23/11 Q1019
LGIO - Ioannina-Elev 476m
Distance from station: ΔΝΔ 209km
Ενημερώθηκε: 20/09/2020 14:20
Μερικώς νεφελώδης
Μερικώς νεφελώδης
 Ανεμος από varies
Ανεμος: varies 7 km/h
Θερμοκρασία: 28°C
Σημείο Δρόσου: 11°C
Υγρασία: 35%
Βαρόμετρο: 1016 hPa
Clouds: Μερικώς νεφελώδης
Visibility: 10 km
Cloud details: Μερικώς νεφελώδης 914 m
2020/09/20 11:20 LGIO 201120Z VRB04KT 9999 SCT030 28/11 Q1016
 
LGZA - Zakinthos-Elev 3m
Distance from station: ΝΝΔ 367km
Ενημερώθηκε: 20/09/2020 13:50
Αίθριος
Αίθριος
 Ανεμος από Β
Ανεμος: Β 17 km/h
Θερμοκρασία: 26°C
Σημείο Δρόσου: 16°C
Υγρασία: 54%
Βαρόμετρο: 1015 hPa
Συνθήκες: Αίθριος
Visibility: greater than 10 km
2020/09/20 10:50 LGZA 201050Z 35009KT CAVOK 26/16 Q1015
LGKR - Corfu Island-Elev 2m
Distance from station: ΔΝΔ 282km
Ενημερώθηκε: 20/09/2020 14:20
Μερικώς νεφελώδης
Μερικώς νεφελώδης
 Ανεμος από varies
Ανεμος: varies 0 km/h
Θερμοκρασία: 29°C
Heat Index: 31°C
Σημείο Δρόσου: 20°C
Υγρασία: 58%
Βαρόμετρο: 1015 hPa
Clouds: Μερικώς νεφελώδης
Visibility: 10 km
Cloud details: Μερικώς νεφελώδης 610 m
2020/09/20 11:20 LGKR 201120Z /////KT 9999 SCT020 29/20 Q1015 NOSIG
 
LGSO - Syros Island-Elev 72m
Distance from station: ΝΝΑ 397km
Ενημερώθηκε: 20/09/2020 13:50
Few Clouds
Few Clouds
 Ανεμος από Β
Ανεμος: Β 31 km/h, Ριπή: 50 km/h
Θερμοκρασία: 23°C
Σημείο Δρόσου: 16°C
Υγρασία: 65%
Βαρόμετρο: 1014 hPa
Clouds: Few Clouds
Visibility: 10 km
Cloud details: Few Clouds 457 m
2020/09/20 10:50 LGSO 201050Z 35017G27KT 9999 FEW015 23/16 Q1014
LGMK - Mikonos Island-Elev 123m
Distance from station: ΝΝΑ 412km
Ενημερώθηκε: 20/09/2020 14:20
Few Clouds
Few Clouds
 Ανεμος από Β
Ανεμος: Β 43 km/h, Ριπή: 65 km/h
Θερμοκρασία: 24°C
Σημείο Δρόσου: 16°C
Υγρασία: 61%
Βαρόμετρο: 1013 hPa
Clouds: Few Clouds
Visibility: 10 km
Cloud details: Few Clouds 305 m
2020/09/20 11:20 LGMK 201120Z 36023G35KT 9999 FEW010 24/16 Q1013
 
LGSR - Santorini Island-Elev 40m
Distance from station: ΝΝΑ 520km
Ενημερώθηκε: 20/09/2020 14:20
Few Clouds
Few Clouds
 Ανεμος από Β
Ανεμος: Β 37 km/h
Θερμοκρασία: 24°C
Σημείο Δρόσου: 17°C
Υγρασία: 65%
Βαρόμετρο: 1012 hPa
Clouds: Few Clouds
Visibility: 10 km
Cloud details: Few Clouds 762 m
2020/09/20 11:20 LGSR 201120Z 35020KT 9999 FEW025 24/17 Q1012
LGKL - Kalamata-Elev 8m
Distance from station: Ν 405km
Ενημερώθηκε: 20/09/2020 14:20
Μερικώς νεφελώδης
Μερικώς νεφελώδης
 Ανεμος από ΝΝΑ
Ανεμος: ΝΝΑ 15 km/h
Θερμοκρασία: 28°C
Heat Index: 28°C
Σημείο Δρόσου: 16°C
Υγρασία: 48%
Βαρόμετρο: 1013 hPa
Clouds: Μερικώς νεφελώδης
Visibility: 10 km
Cloud details: Μερικώς νεφελώδης 914 m
2020/09/20 11:20 LGKL 201120Z 15008KT 9999 SCT030 28/16 Q1013
 
LGIR - Iraklion/Crete-Elev 5m
Distance from station: ΝΝΑ 622km
Ενημερώθηκε: 20/09/2020 14:20
Σχεδόν νεφελώδης
Σχεδόν νεφελώδης
 Ανεμος από Β
Ανεμος: Β 26 km/h
Θερμοκρασία: 24°C
Σημείο Δρόσου: 18°C
Υγρασία: 69%
Βαρόμετρο: 1013 hPa
Clouds: Σχεδόν νεφελώδης
Visibility: 10 km
Cloud details: Few Clouds 457 m
Few Clouds 610 m
Σχεδόν νεφελώδης 762 m
Σχεδόν νεφελώδης 2438 m
2020/09/20 11:20 LGIR 201120Z 35014KT 9999 FEW015 FEW020TCU BKN025 BKN080 24/18 Q1013 NOSIG
LGRP - Rhodes-Elev 5m
Distance from station: ΝΑ 649km
Ενημερώθηκε: 20/09/2020 14:20
Few Clouds
Few Clouds
 Ανεμος από Δ
Ανεμος: Δ 11 km/h
Θερμοκρασία: 29°C
Heat Index: 32°C
Σημείο Δρόσου: 22°C
Υγρασία: 66%
Βαρόμετρο: 1009 hPa
Clouds: Few Clouds
Visibility: 10 km
Cloud details: Few Clouds 549 m
2020/09/20 11:20 LGRP 201120Z 28006KT 9999 FEW018 29/22 Q1009 NOSIG
 
LWOH - Ohrid/FYROM-Elev 761m
Distance from station: ΔΒΔ 188km
Ενημερώθηκε: 20/09/2020 14:30
Few Clouds
Few Clouds
 Ανεμος από ΝΝΑ
Ανεμος: ΝΝΑ 13 km/h
Θερμοκρασία: 22°C
Σημείο Δρόσου: 13°C
Υγρασία: 57%
Βαρόμετρο: 1017 hPa
Clouds: Few Clouds
Visibility: 10 km
Cloud details: Few Clouds 1219 m
2020/09/20 11:30 LWOH 201130Z 16007KT 9999 FEW040 22/13 Q1017
LBSF - Sofia/Bulgaria-Elev 595m
Distance from station: Β 227km
Ενημερώθηκε: 20/09/2020 14:30
Αίθριος
Αίθριος
 Ανεμος από varies
Ανεμος: varies 6 km/h
Θερμοκρασία: 22°C
Σημείο Δρόσου: 0°C
Υγρασία: 23%
Βαρόμετρο: 1019 hPa
Συνθήκες: Αίθριος
Visibility: greater than 10 km
2020/09/20 11:30 LBSF 201130Z VRB03KT CAVOK 22/00 Q1019 NOSIG
Σημερινά ρεκόρ Μετεωρολογικού Σταθμού
Η βροχόπτωση των 291.9 mm ξεπέρασε το Μέγιστο ρεκόρ σταθμού όλων των εποχών των 115.5 mm που σημειώθηκε στις 16/11/2018 κατά 176.4 mm
Η μέγιστη μέση ταχύτητα ανέμου των 49.08 km/h ξεπέρασε τη Μέγιστη Μηνιαία τιμή των 37.78 km/h που σημειώθηκε στις 01/09/2020 κατά 11.3 km/h
Η Μέγιστη τιμή Σημείου Δρόσου των 10.2°C ξεπέρασε τη Μέγιστη Μηνιαία τιμή των 9.3°C που σημειώθηκε στις 17/09/2020 κατά 0.9°